createdAt,value
2022-09-17T00:00:52.455Z,11.37
2022-09-17T00:03:19.015Z,11.37
2022-09-17T00:05:45.435Z,11.35
2022-09-17T00:08:14.893Z,11.36
2022-09-17T00:10:43.622Z,11.34
2022-09-17T00:13:11.853Z,11.36
2022-09-17T00:15:43.869Z,11.38
2022-09-17T00:18:11.260Z,11.39
2022-09-17T00:20:39.687Z,11.37
2022-09-17T00:23:06.897Z,11.37
2022-09-17T00:25:33.389Z,11.37
2022-09-17T00:27:59.783Z,11.39
2022-09-17T00:30:26.172Z,11.39
2022-09-17T00:32:53.128Z,11.37
2022-09-17T00:35:19.525Z,11.36
2022-09-17T00:37:46.031Z,11.33
2022-09-17T00:40:12.462Z,11.35
2022-09-17T00:42:38.964Z,11.35
2022-09-17T00:45:05.835Z,11.31
2022-09-17T00:47:37.429Z,11.29
2022-09-17T00:50:09.446Z,11.26
2022-09-17T00:52:52.347Z,11.24
2022-09-17T00:55:27.518Z,11.22
2022-09-17T00:57:58.871Z,11.18
2022-09-17T01:00:27.129Z,11.14
2022-09-17T01:02:54.730Z,11.13
2022-09-17T01:05:55.098Z,11.14
2022-09-17T01:08:36.851Z,11.09
2022-09-17T01:11:35.546Z,11.05
2022-09-17T01:14:10.627Z,11.00
2022-09-17T01:17:07.605Z,10.97
2022-09-17T01:19:43.948Z,10.96
2022-09-17T01:22:19.843Z,10.93
2022-09-17T01:24:58.579Z,10.90
2022-09-17T01:27:33.804Z,10.88
2022-09-17T01:30:15.601Z,10.89
2022-09-17T01:32:52.150Z,10.91
2022-09-17T01:35:40.287Z,10.91
2022-09-17T01:38:16.277Z,10.91
2022-09-17T01:40:51.026Z,10.92
2022-09-17T01:43:34.831Z,10.94
2022-09-17T01:46:32.081Z,10.97
2022-09-17T01:49:05.923Z,10.99
2022-09-17T01:51:38.892Z,11.05
2022-09-17T01:54:31.073Z,11.07
2022-09-17T01:57:14.467Z,11.08
2022-09-17T02:00:02.368Z,11.09
2022-09-17T02:02:44.010Z,11.09
2022-09-17T02:05:36.434Z,11.07
2022-09-17T02:08:10.311Z,11.06
2022-09-17T02:10:48.048Z,11.05
2022-09-17T02:13:21.583Z,11.03
2022-09-17T02:15:55.625Z,11.00
2022-09-17T02:18:45.628Z,10.94
2022-09-17T02:21:17.152Z,10.91
2022-09-17T02:24:00.773Z,10.90
2022-09-17T02:26:27.939Z,10.84
2022-09-17T02:28:59.727Z,10.82
2022-09-17T02:31:26.446Z,10.77
2022-09-17T02:34:01.450Z,10.74
2022-09-17T02:36:28.519Z,10.71
2022-09-17T02:39:01.543Z,10.67
2022-09-17T02:41:58.214Z,10.62
2022-09-17T02:44:55.753Z,10.59
2022-09-17T02:47:34.019Z,10.55
2022-09-17T02:50:04.698Z,10.50
2022-09-17T02:53:05.020Z,10.46
2022-09-17T02:56:10.478Z,10.42
2022-09-17T02:59:02.339Z,10.36
2022-09-17T03:01:35.684Z,10.32
2022-09-17T03:04:06.426Z,10.28
2022-09-17T03:06:32.877Z,10.24
2022-09-17T03:08:59.274Z,10.20
2022-09-17T03:11:25.707Z,10.20
2022-09-17T03:13:52.074Z,10.18
2022-09-17T03:16:18.493Z,10.15
2022-09-17T03:18:44.927Z,10.14
2022-09-17T03:21:12.499Z,10.14
2022-09-17T03:23:39.527Z,10.13
2022-09-17T03:26:06.086Z,10.12
2022-09-17T03:28:32.603Z,10.12
2022-09-17T03:30:59.093Z,10.11
2022-09-17T03:33:25.626Z,10.09
2022-09-17T03:35:52.058Z,10.08
2022-09-17T03:38:18.478Z,10.07
2022-09-17T03:40:44.873Z,10.04
2022-09-17T03:43:11.292Z,10.02
2022-09-17T03:45:37.815Z,10.01
2022-09-17T03:48:04.327Z,9.97
2022-09-17T03:50:30.744Z,9.93
2022-09-17T03:52:57.091Z,9.87
2022-09-17T03:55:23.475Z,9.83
2022-09-17T03:57:51.249Z,9.82
2022-09-17T04:00:17.722Z,9.81
2022-09-17T04:02:44.399Z,9.82
2022-09-17T04:05:10.896Z,9.82
2022-09-17T04:07:37.315Z,9.84
2022-09-17T04:10:05.257Z,9.85
2022-09-17T04:12:31.890Z,9.85
2022-09-17T04:14:58.315Z,9.86
2022-09-17T04:17:24.682Z,9.86
2022-09-17T04:19:51.144Z,9.88
2022-09-17T04:22:17.495Z,9.89
2022-09-17T04:24:43.872Z,9.93
2022-09-17T04:27:10.376Z,9.93
2022-09-17T04:29:36.806Z,9.93
2022-09-17T04:32:03.589Z,9.91
2022-09-17T04:34:30.636Z,9.89
2022-09-17T04:36:57.003Z,9.86
2022-09-17T04:39:23.462Z,9.86
2022-09-17T04:41:49.811Z,9.85
2022-09-17T04:44:16.190Z,9.83
2022-09-17T04:46:42.576Z,9.79
2022-09-17T04:49:08.965Z,9.74
2022-09-17T04:51:35.346Z,9.70
2022-09-17T04:54:01.728Z,9.67
2022-09-17T04:56:28.168Z,9.67
2022-09-17T04:58:54.530Z,9.65
2022-09-17T05:01:21.002Z,9.61
2022-09-17T05:03:47.439Z,9.60
2022-09-17T05:06:13.935Z,9.54
2022-09-17T05:08:40.403Z,9.54
2022-09-17T05:11:09.091Z,9.53
2022-09-17T05:13:35.715Z,9.50
2022-09-17T05:16:02.334Z,9.48
2022-09-17T05:18:29.927Z,9.47
2022-09-17T05:20:56.292Z,9.43
2022-09-17T05:23:22.722Z,9.39
2022-09-17T05:25:49.182Z,9.37
2022-09-17T05:28:15.535Z,9.38
2022-09-17T05:30:42.814Z,9.40
2022-09-17T05:33:09.967Z,9.42
2022-09-17T05:35:36.719Z,9.44
2022-09-17T05:38:05.550Z,9.46
2022-09-17T05:40:33.052Z,9.51
2022-09-17T05:43:04.633Z,9.56
2022-09-17T05:45:33.363Z,9.60
2022-09-17T05:48:01.842Z,9.69
2022-09-17T05:50:29.726Z,9.79
2022-09-17T05:52:56.584Z,9.86
2022-09-17T05:55:24.222Z,9.94
2022-09-17T05:57:51.320Z,9.97
2022-09-17T06:00:18.994Z,9.97
2022-09-17T06:02:46.875Z,9.99
2022-09-17T06:05:13.323Z,9.97
2022-09-17T06:07:39.943Z,9.95
2022-09-17T06:10:08.247Z,9.99
2022-09-17T06:12:35.741Z,10.04
2022-09-17T06:15:06.334Z,10.07
2022-09-17T06:17:34.920Z,10.11
2022-09-17T06:20:02.059Z,10.17
2022-09-17T06:22:31.027Z,10.21
2022-09-17T06:24:57.729Z,10.31
2022-09-17T06:27:24.200Z,10.39
2022-09-17T06:29:50.579Z,10.47
2022-09-17T06:32:17.062Z,10.53
2022-09-17T06:34:43.879Z,10.62
2022-09-17T06:37:10.403Z,10.71
2022-09-17T06:39:36.836Z,10.80
2022-09-17T06:42:03.317Z,10.84
2022-09-17T06:44:29.663Z,10.95
2022-09-17T06:46:56.465Z,11.10
2022-09-17T06:49:23.003Z,11.22
2022-09-17T06:51:49.388Z,11.27
2022-09-17T06:54:15.969Z,11.37
2022-09-17T06:56:43.988Z,11.47
2022-09-17T06:59:10.394Z,11.56
2022-09-17T07:01:36.869Z,11.65
2022-09-17T07:04:03.300Z,11.74
2022-09-17T07:06:29.690Z,11.83
2022-09-17T07:08:56.072Z,11.89
2022-09-17T07:11:22.486Z,11.98
2022-09-17T07:13:48.883Z,12.01
2022-09-17T07:16:15.470Z,11.96
2022-09-17T07:18:41.988Z,11.97
2022-09-17T07:23:46.627Z,12.05
2022-09-17T07:26:14.637Z,12.10
2022-09-17T07:28:41.745Z,12.13
2022-09-17T07:31:13.705Z,12.18
2022-09-17T07:33:42.367Z,12.24
2022-09-17T07:36:12.129Z,12.27
2022-09-17T07:38:39.573Z,12.32
2022-09-17T07:41:09.561Z,12.35
2022-09-17T07:43:36.272Z,12.40
2022-09-17T07:46:05.176Z,12.50
2022-09-17T07:48:32.482Z,12.58
2022-09-17T07:50:58.994Z,12.69
2022-09-17T07:53:26.060Z,12.80
2022-09-17T07:55:57.781Z,12.94
2022-09-17T07:58:29.398Z,12.99
2022-09-17T08:01:08.300Z,12.89
2022-09-17T08:03:35.549Z,12.71
2022-09-17T08:06:06.994Z,12.62
2022-09-17T08:08:35.847Z,12.55
2022-09-17T08:11:09.917Z,12.68
2022-09-17T08:13:37.315Z,12.77
2022-09-17T08:16:13.193Z,12.98
2022-09-17T08:18:40.717Z,13.07
2022-09-17T08:21:09.726Z,13.16
2022-09-17T08:23:38.692Z,13.24
2022-09-17T08:26:08.589Z,13.08
2022-09-17T08:28:35.894Z,12.78
2022-09-17T08:31:08.306Z,12.55
2022-09-17T08:33:40.022Z,12.37
2022-09-17T08:36:08.538Z,12.23
2022-09-17T08:38:38.420Z,12.21
2022-09-17T08:41:11.379Z,12.37
2022-09-17T08:43:55.477Z,12.53
2022-09-17T08:46:23.857Z,12.65
2022-09-17T08:49:15.396Z,12.78
2022-09-17T08:52:06.020Z,12.88
2022-09-17T08:54:35.247Z,12.96
2022-09-17T08:57:24.979Z,13.06
2022-09-17T09:00:11.314Z,13.22
2022-09-17T09:02:50.927Z,13.30
2022-09-17T09:05:22.829Z,13.44
2022-09-17T09:07:55.156Z,13.53
2022-09-17T09:10:31.983Z,13.71
2022-09-17T09:13:00.619Z,13.79
2022-09-17T09:15:42.392Z,13.80
2022-09-17T09:18:24.098Z,13.93
2022-09-17T09:20:58.927Z,14.20
2022-09-17T09:24:03.178Z,14.33
2022-09-17T09:26:45.104Z,14.36
2022-09-17T09:29:29.983Z,14.46
2022-09-17T09:32:22.916Z,14.37
2022-09-17T09:34:50.533Z,14.26
2022-09-17T09:37:24.873Z,14.25
2022-09-17T09:39:54.084Z,14.20
2022-09-17T09:42:29.365Z,14.01
2022-09-17T09:45:07.252Z,13.82
2022-09-17T09:47:54.811Z,13.73
2022-09-17T09:51:05.832Z,13.46
2022-09-17T09:53:41.986Z,13.28
2022-09-17T09:56:47.911Z,13.18
2022-09-17T09:59:14.346Z,13.11
2022-09-17T10:01:42.885Z,13.06
2022-09-17T10:04:24.378Z,12.98
2022-09-17T10:06:53.759Z,12.77
2022-09-17T10:09:22.560Z,12.56
2022-09-17T10:12:12.301Z,12.43
2022-09-17T10:14:40.763Z,12.47
2022-09-17T10:17:18.054Z,12.69
2022-09-17T10:19:46.143Z,12.90
2022-09-17T10:22:24.506Z,12.90
2022-09-17T10:24:53.325Z,12.94
2022-09-17T10:27:23.131Z,13.25
2022-09-17T10:29:55.058Z,13.44
2022-09-17T10:32:22.779Z,13.55
2022-09-17T10:34:58.344Z,13.66
2022-09-17T10:37:55.438Z,13.75
2022-09-17T10:40:27.397Z,13.78
2022-09-17T10:43:14.257Z,13.79
2022-09-17T10:45:55.983Z,13.97
2022-09-17T10:48:22.805Z,13.97
2022-09-17T10:50:56.762Z,13.89
2022-09-17T10:53:25.736Z,13.94
2022-09-17T10:56:19.311Z,14.07
2022-09-17T10:59:05.066Z,14.22
2022-09-17T11:01:52.036Z,14.32
2022-09-17T11:04:31.431Z,14.41
2022-09-17T11:07:20.208Z,14.50
2022-09-17T11:10:04.662Z,14.53
2022-09-17T11:12:42.061Z,14.67
2022-09-17T11:15:25.280Z,14.84
2022-09-17T11:18:19.886Z,14.99
2022-09-17T11:21:04.261Z,15.02
2022-09-17T11:23:40.243Z,14.89
2022-09-17T11:26:18.663Z,14.91
2022-09-17T11:29:10.114Z,14.99
2022-09-17T11:31:59.574Z,15.11
2022-09-17T11:34:32.372Z,15.07
2022-09-17T11:37:09.160Z,15.16
2022-09-17T11:39:59.454Z,15.06
2022-09-17T11:42:32.501Z,14.95
2022-09-17T11:45:25.781Z,15.17
2022-09-17T11:48:18.074Z,15.22
2022-09-17T11:50:50.388Z,15.46
2022-09-17T11:53:59.865Z,15.71
2022-09-17T11:56:34.947Z,16.00
2022-09-17T11:59:34.843Z,15.78
2022-09-17T12:02:23.014Z,15.52
2022-09-17T12:05:12.226Z,15.22
2022-09-17T12:07:50.992Z,14.66
2022-09-17T12:10:36.324Z,14.17
2022-09-17T12:13:13.650Z,14.02
2022-09-17T12:15:45.588Z,14.00
2022-09-17T12:18:32.351Z,13.71
2022-09-17T12:21:02.963Z,13.11
2022-09-17T12:23:37.162Z,12.86
2022-09-17T12:26:32.289Z,12.91
2022-09-17T12:29:08.442Z,13.28
2022-09-17T12:32:04.009Z,13.46
2022-09-17T12:35:07.916Z,13.48
2022-09-17T12:37:52.995Z,13.37
2022-09-17T12:41:00.891Z,13.29
2022-09-17T12:43:28.765Z,13.44
2022-09-17T12:46:21.456Z,13.68
2022-09-17T12:49:25.712Z,14.05
2022-09-17T12:51:56.772Z,14.31
2022-09-17T12:55:07.829Z,14.29
2022-09-17T12:57:44.336Z,14.15
2022-09-17T13:00:15.858Z,14.04
2022-09-17T13:02:49.530Z,14.15
2022-09-17T13:05:55.022Z,13.80
2022-09-17T13:08:43.374Z,13.84
2022-09-17T13:11:21.939Z,13.98
2022-09-17T13:14:19.462Z,14.08
2022-09-17T13:17:01.219Z,14.29
2022-09-17T13:19:30.593Z,14.46
2022-09-17T13:22:20.634Z,14.66
2022-09-17T13:25:00.915Z,14.66
2022-09-17T13:27:28.021Z,14.50
2022-09-17T13:29:54.336Z,14.54
2022-09-17T13:32:33.214Z,14.73
2022-09-17T13:35:11.589Z,14.96
2022-09-17T13:37:41.166Z,15.09
2022-09-17T13:40:23.592Z,15.22
2022-09-17T13:42:56.302Z,15.26
2022-09-17T13:45:24.462Z,15.07
2022-09-17T13:48:05.177Z,14.78
2022-09-17T13:50:35.040Z,14.57
2022-09-17T13:53:14.296Z,14.27
2022-09-17T13:55:42.702Z,14.24
2022-09-17T13:58:22.164Z,14.14
2022-09-17T14:00:54.654Z,14.13
2022-09-17T14:03:41.803Z,14.25
2022-09-17T14:06:08.484Z,14.31
2022-09-17T14:08:44.078Z,14.45
2022-09-17T14:11:37.425Z,14.56
2022-09-17T14:14:07.946Z,14.70
2022-09-17T14:16:40.823Z,14.56
2022-09-17T14:19:16.991Z,14.32
2022-09-17T14:22:15.236Z,14.39
2022-09-17T14:24:44.812Z,14.50
2022-09-17T14:27:16.926Z,14.53
2022-09-17T14:30:01.338Z,14.62
2022-09-17T14:32:33.477Z,14.67
2022-09-17T14:35:15.520Z,14.73
2022-09-17T14:37:46.913Z,14.80
2022-09-17T14:40:18.737Z,14.85
2022-09-17T14:42:48.541Z,14.92
2022-09-17T14:45:21.305Z,14.92
2022-09-17T14:47:47.751Z,14.88
2022-09-17T14:50:20.756Z,14.94
2022-09-17T14:52:52.691Z,14.86
2022-09-17T14:55:24.118Z,14.87
2022-09-17T14:57:56.296Z,14.94
2022-09-17T15:00:32.833Z,15.04
2022-09-17T15:02:59.729Z,15.07
2022-09-17T15:05:35.720Z,15.01
2022-09-17T15:08:21.200Z,15.02
2022-09-17T15:11:01.665Z,15.08
2022-09-17T15:13:40.665Z,15.02
2022-09-17T15:16:13.531Z,15.04
2022-09-17T15:18:52.577Z,15.14
2022-09-17T15:21:34.620Z,15.27
2022-09-17T15:24:17.750Z,15.33
2022-09-17T15:26:48.531Z,15.25
2022-09-17T15:29:15.238Z,15.29
2022-09-17T15:31:41.933Z,15.32
2022-09-17T15:34:11.388Z,15.25
2022-09-17T15:36:38.298Z,14.99
2022-09-17T15:39:46.553Z,14.77
2022-09-17T15:42:22.091Z,14.59
2022-09-17T15:44:48.570Z,14.60
2022-09-17T15:47:34.998Z,14.69
2022-09-17T15:50:28.186Z,14.77
2022-09-17T15:53:09.910Z,14.75
2022-09-17T15:55:40.948Z,14.72
2022-09-17T15:58:27.341Z,14.61
2022-09-17T16:01:15.367Z,14.58
2022-09-17T16:03:41.902Z,14.61
2022-09-17T16:06:25.353Z,14.66
2022-09-17T16:08:57.242Z,14.60
2022-09-17T16:11:26.220Z,14.43
2022-09-17T16:13:54.547Z,14.35
2022-09-17T16:16:42.539Z,14.32
2022-09-17T16:19:10.393Z,14.31
2022-09-17T16:21:36.890Z,14.36
2022-09-17T16:24:03.708Z,14.44
2022-09-17T16:26:35.050Z,14.46
2022-09-17T16:29:18.010Z,14.45
2022-09-17T16:31:45.036Z,14.43
2022-09-17T16:34:11.547Z,14.39
2022-09-17T16:36:38.045Z,14.37
2022-09-17T16:39:05.145Z,14.31
2022-09-17T16:41:31.603Z,14.27
2022-09-17T16:43:58.407Z,14.24
2022-09-17T16:46:25.879Z,14.20
2022-09-17T16:48:52.406Z,14.16
2022-09-17T16:51:19.157Z,14.12
2022-09-17T16:53:45.784Z,14.10
2022-09-17T16:56:14.680Z,14.06
2022-09-17T16:58:41.789Z,13.99
2022-09-17T17:01:14.623Z,13.88
2022-09-17T17:03:41.961Z,13.76
2022-09-17T17:06:19.977Z,13.67
2022-09-17T17:08:46.742Z,13.64
2022-09-17T17:11:13.960Z,13.60
2022-09-17T17:13:43.035Z,13.53
2022-09-17T17:16:11.522Z,13.53
2022-09-17T17:18:38.055Z,13.49
2022-09-17T17:21:08.700Z,13.40
2022-09-17T17:23:35.713Z,13.26
2022-09-17T17:26:03.565Z,13.24
2022-09-17T17:28:35.202Z,13.18
2022-09-17T17:31:02.971Z,13.12
2022-09-17T17:33:29.796Z,13.07
2022-09-17T17:36:06.692Z,13.02
2022-09-17T17:38:34.031Z,12.95
2022-09-17T17:41:14.640Z,12.93
2022-09-17T17:43:41.907Z,12.92
2022-09-17T17:46:09.917Z,12.90
2022-09-17T17:48:37.006Z,12.86
2022-09-17T17:51:06.316Z,12.81
2022-09-17T17:53:32.974Z,12.77
2022-09-17T17:56:01.711Z,12.70
2022-09-17T17:58:28.407Z,12.65
2022-09-17T18:00:55.432Z,12.59
2022-09-17T18:03:25.131Z,12.55
2022-09-17T18:05:53.368Z,12.52
2022-09-17T18:08:19.777Z,12.47
2022-09-17T18:10:56.873Z,12.50
2022-09-17T18:13:24.268Z,12.48
2022-09-17T18:15:55.703Z,12.46
2022-09-17T18:18:23.517Z,12.46
2022-09-17T18:20:51.788Z,12.45
2022-09-17T18:23:18.344Z,12.40
2022-09-17T18:25:59.254Z,12.30
2022-09-17T18:28:27.315Z,12.22
2022-09-17T18:30:54.659Z,12.12
2022-09-17T18:33:24.776Z,12.04
2022-09-17T18:35:56.840Z,11.98
2022-09-17T18:38:24.100Z,11.93
2022-09-17T18:40:51.602Z,11.91
2022-09-17T18:43:18.256Z,11.88
2022-09-17T18:45:54.381Z,11.85
2022-09-17T18:48:21.139Z,11.79
2022-09-17T18:51:04.297Z,11.76
2022-09-17T18:53:33.249Z,11.76
2022-09-17T18:56:04.694Z,11.74
2022-09-17T18:58:31.084Z,11.71
2022-09-17T19:00:57.628Z,11.68
2022-09-17T19:03:24.136Z,11.66
2022-09-17T19:05:50.555Z,11.62
2022-09-17T19:08:22.518Z,11.60
2022-09-17T19:10:52.871Z,11.55
2022-09-17T19:13:19.660Z,11.55
2022-09-17T19:15:46.407Z,11.53
2022-09-17T19:18:12.846Z,11.49
2022-09-17T19:20:39.750Z,11.48
2022-09-17T19:23:06.907Z,11.46
2022-09-17T19:25:36.071Z,11.43
2022-09-17T19:28:06.711Z,11.39
2022-09-17T19:30:33.478Z,11.35
2022-09-17T19:33:00.339Z,11.31
2022-09-17T19:35:27.433Z,11.28
2022-09-17T19:37:58.147Z,11.27
2022-09-17T19:40:24.843Z,11.22
2022-09-17T19:42:55.770Z,11.13
2022-09-17T19:45:23.326Z,11.13
2022-09-17T19:47:51.274Z,11.10
2022-09-17T19:50:18.540Z,11.07
2022-09-17T19:52:45.055Z,11.07
2022-09-17T19:55:13.060Z,11.08
2022-09-17T19:57:40.331Z,11.09
2022-09-17T20:00:09.216Z,11.11
2022-09-17T20:02:35.691Z,11.13
2022-09-17T20:05:02.232Z,11.13
2022-09-17T20:07:30.058Z,11.16
2022-09-17T20:09:56.485Z,11.17
2022-09-17T20:12:22.934Z,11.16
2022-09-17T20:14:49.329Z,11.12
2022-09-17T20:17:15.726Z,11.09
2022-09-17T20:19:42.469Z,11.11
2022-09-17T20:22:08.922Z,11.09
2022-09-17T20:24:35.391Z,11.08
2022-09-17T20:27:01.806Z,11.08
2022-09-17T20:29:28.240Z,11.06
2022-09-17T20:31:54.712Z,11.06
2022-09-17T20:34:21.101Z,11.06
2022-09-17T20:36:47.537Z,11.09
2022-09-17T20:39:19.705Z,11.09
2022-09-17T20:41:49.002Z,11.10
2022-09-17T20:44:15.409Z,11.07
2022-09-17T20:46:41.895Z,11.03
2022-09-17T20:49:08.585Z,11.00
2022-09-17T20:51:35.261Z,10.98
2022-09-17T20:54:01.932Z,10.94
2022-09-17T20:56:32.410Z,10.92
2022-09-17T20:59:08.258Z,10.90
2022-09-17T21:01:35.783Z,10.91
2022-09-17T21:04:04.351Z,10.91
2022-09-17T21:06:36.061Z,10.93
2022-09-17T21:09:03.468Z,10.96
2022-09-17T21:11:31.385Z,10.99
2022-09-17T21:13:59.969Z,11.01
2022-09-17T21:16:26.872Z,11.03
2022-09-17T21:18:58.318Z,11.07
2022-09-17T21:21:26.012Z,11.04
2022-09-17T21:23:52.717Z,11.06
2022-09-17T21:26:24.051Z,11.07
2022-09-17T21:28:52.121Z,11.05
2022-09-17T21:31:21.511Z,11.05
2022-09-17T21:33:52.001Z,11.06
2022-09-17T21:36:20.646Z,11.05
2022-09-17T21:39:14.365Z,11.03
2022-09-17T21:41:42.966Z,11.00
2022-09-17T21:44:13.012Z,11.01
2022-09-17T21:46:40.853Z,10.96
2022-09-17T21:49:07.832Z,10.94
2022-09-17T21:51:39.174Z,10.92
2022-09-17T21:54:08.481Z,10.88
2022-09-17T21:56:35.661Z,10.89
2022-09-17T21:59:04.463Z,10.92
2022-09-17T22:01:35.698Z,10.95
2022-09-17T22:04:02.353Z,10.96
2022-09-17T22:06:31.671Z,10.97
2022-09-17T22:09:00.085Z,11.00
2022-09-17T22:11:32.002Z,11.02
2022-09-17T22:14:00.784Z,11.02
2022-09-17T22:16:30.730Z,11.04
2022-09-17T22:19:02.702Z,11.03
2022-09-17T22:21:31.191Z,11.04
2022-09-17T22:23:59.924Z,11.04
2022-09-17T22:26:29.635Z,11.01
2022-09-17T22:28:56.687Z,11.00
2022-09-17T22:31:23.228Z,10.99
2022-09-17T22:33:50.432Z,10.96
2022-09-17T22:36:19.436Z,10.92
2022-09-17T22:38:48.502Z,10.90
2022-09-17T22:41:20.407Z,10.87
2022-09-17T22:43:47.560Z,10.84
2022-09-17T22:46:23.042Z,10.81
2022-09-17T22:48:49.738Z,10.81
2022-09-17T22:51:16.599Z,10.82
2022-09-17T22:53:43.615Z,10.82
2022-09-17T22:56:12.881Z,10.83
2022-09-17T22:58:39.817Z,10.87
2022-09-17T23:01:21.191Z,10.89
2022-09-17T23:03:48.899Z,10.91
2022-09-17T23:06:21.911Z,10.92
2022-09-17T23:08:48.340Z,10.96
2022-09-17T23:11:25.080Z,10.99
2022-09-17T23:13:52.062Z,11.01
2022-09-17T23:16:19.711Z,11.04
2022-09-17T23:18:46.356Z,11.06
2022-09-17T23:21:16.386Z,11.10
2022-09-17T23:23:44.709Z,11.12
2022-09-17T23:26:14.371Z,11.12
2022-09-17T23:28:41.446Z,11.14
2022-09-17T23:31:16.301Z,11.14
2022-09-17T23:33:43.141Z,11.15
2022-09-17T23:36:15.287Z,11.14
2022-09-17T23:38:43.938Z,11.14
2022-09-17T23:41:21.529Z,11.14
2022-09-17T23:43:50.574Z,11.13
2022-09-17T23:46:18.169Z,11.14
2022-09-17T23:48:45.157Z,11.15
2022-09-17T23:51:11.888Z,11.14
2022-09-17T23:53:38.402Z,11.13
2022-09-17T23:56:11.627Z,11.13
2022-09-17T23:58:38.148Z,11.12
